Ana Sayfa
METAR-TAF:

METAR-TAF

Havaalanları :

Hondo, Teksas, Amerika Birleşik Devletleri

Enlem: 29-21-34N, Boylam: 099-10-27W, yükseklik: 283 m

Güncel hava durumu gözlemi

Rapor saat 04:51 UTC de 44 dakika önce yapıldı.
Rüzgar kuzeydoğudan 4 kt
Sıcaklık 14°C
Nem 88%
Basınç 1008 hPa
Görüş mesafesi: 16.1 km
Açık gökyüzü

METAR: KHDO 160451Z AUTO 05004KT 10SM CLR 14/12 A2976 RMK AO2 SLP066 T01440122 $

Saat: 23:35 (05:35 UTC)


TAF: eksik

4.000'den fazla havaalanı için hava durumu gözlemleri ve tahminleri (METAR ve TAF raporları).

Kullanılabilir istasyonlar harita üzerinde sarı ve kırmızı noktalarla gösterilir.

İstasyonun adını görmek için fareyi noktanın üzerinde gezdirin.

Sonrasında hava gözlem ve tahminlerini görmek için tıklayın.

Haritayı değiştirmek için: yaklaştırmak için siyah artı işaretli yeşil düğmeye ve uzaklaştırmak için de eksi işaretli düğmeye hızla tıklayın; bitişik haritalar için yeşil okları kullanın.


METAR-TAF: